Time;durP1;ratioP1;P1;durP2;ratioP2;P2;SDS_P1;SDS_P2;PMS_P1;PMS_P2;Temp;Humidity;BMP_temperature;BMP_pressure;BME280_temperature;BME280_humidity;BME280_pressure;Samples;Min_cycle;Max_cycle;Signal;HPM_P1;HPM_P2
2023/06/27 00:00:36;;;;;;;7.97;2.60;;;16.80;99.90;;;;;;5096776;28;20234;-57
2023/06/27 00:03:05;;;;;;;11.27;2.80;;;16.80;99.90;;;;;;5097204;28;20226;-56
2023/06/27 00:05:34;;;;;;;7.10;2.50;;;16.80;99.90;;;;;;5097503;28;20785;-56
2023/06/27 00:08:03;;;;;;;7.80;2.87;;;16.80;99.90;;;;;;5095581;28;20215;-56
2023/06/27 00:10:31;;;;;;;8.50;2.50;;;16.70;99.90;;;;;;5096554;28;20224;-57
2023/06/27 00:13:01;;;;;;;6.97;2.50;;;16.80;99.90;;;;;;5096967;28;20748;-57
2023/06/27 00:15:34;;;;;;;7.87;2.87;;;16.70;99.90;;;;;;5094033;27;20197;-57
2023/06/27 00:18:08;;;;;;;9.40;2.50;;;16.70;99.90;;;;;;5098453;28;20192;-57
2023/06/27 00:20:36;;;;;;;9.13;2.90;;;16.60;99.90;;;;;;5093301;28;20214;-57
2023/06/27 00:23:21;;;;;;;6.93;2.53;;;16.60;99.90;;;;;;5088553;28;20222;-57
2023/06/27 00:25:50;;;;;;;9.73;2.93;;;16.60;99.90;;;;;;5092588;28;20220;-57
2023/06/27 00:28:20;;;;;;;10.23;2.50;;;16.60;99.90;;;;;;5097392;28;20258;-56
2023/06/27 00:30:48;;;;;;;11.17;2.57;;;16.60;99.90;;;;;;5097026;28;20217;-56
2023/06/27 00:33:16;;;;;;;9.63;2.77;;;16.60;99.90;;;;;;5094419;28;20582;-56
2023/06/27 00:35:44;;;;;;;11.63;3.00;;;16.50;99.90;;;;;;5089585;28;20193;-57
2023/06/27 00:38:13;;;;;;;6.17;2.33;;;16.50;99.90;;;;;;5095050;28;20748;-57
2023/06/27 00:40:41;;;;;;;9.23;2.73;;;16.50;99.90;;;;;;5091412;28;20248;-56
2023/06/27 00:43:09;;;;;;;6.97;2.67;;;16.50;99.90;;;;;;5084161;28;20220;-57
2023/06/27 00:45:39;;;;;;;5.67;2.47;;;16.50;99.90;;;;;;5097866;28;20306;-58
2023/06/27 00:48:08;;;;;;;10.60;2.80;;;16.50;99.90;;;;;;5095503;28;20198;-57
2023/06/27 00:50:37;;;;;;;8.57;2.40;;;16.50;99.90;;;;;;5094012;28;20224;-58
2023/06/27 00:53:05;;;;;;;10.43;2.50;;;16.50;99.90;;;;;;5087387;28;20214;-56
2023/06/27 00:55:34;;;;;;;16.67;3.57;;;16.40;99.90;;;;;;5093993;28;20662;-57
2023/06/27 00:58:03;;;;;;;8.83;2.80;;;16.40;99.90;;;;;;5093329;28;20235;-56
2023/06/27 01:00:32;;;;;;;11.33;2.80;;;16.40;99.90;;;;;;5091525;28;20543;-57
2023/06/27 01:03:02;;;;;;;11.97;2.93;;;16.40;99.90;;;;;;5086464;28;20222;-57
2023/06/27 01:05:31;;;;;;;7.17;2.20;;;16.30;99.90;;;;;;5084562;28;20215;-57
2023/06/27 01:08:07;;;;;;;5.90;2.50;;;16.30;99.90;;;;;;5091019;28;20246;-56
2023/06/27 01:10:39;;;;;;;8.53;3.00;;;16.30;99.90;;;;;;5083605;28;20576;-56
2023/06/27 01:13:15;;;;;;;6.00;2.60;;;16.30;99.90;;;;;;5093516;28;20218;-56
2023/06/27 01:15:44;;;;;;;5.73;2.53;;;16.30;99.90;;;;;;5092861;28;20215;-56
2023/06/27 01:18:14;;;;;;;8.20;2.50;;;16.20;99.90;;;;;;5092853;28;20711;-57
2023/06/27 01:20:43;;;;;;;8.40;2.70;;;16.20;99.90;;;;;;5093578;28;20222;-57
2023/06/27 01:23:19;;;;;;;8.03;2.87;;;16.20;99.90;;;;;;5093458;28;20733;-57
2023/06/27 01:25:50;;;;;;;8.13;2.90;;;16.20;99.90;;;;;;5093639;28;20211;-57
2023/06/27 01:28:19;;;;;;;6.07;2.17;;;16.20;99.90;;;;;;5089744;28;20221;-57
2023/06/27 01:30:47;;;;;;;12.07;3.13;;;16.20;99.90;;;;;;5088483;28;20227;-56
2023/06/27 01:33:20;;;;;;;7.60;2.60;;;16.20;99.90;;;;;;5093728;28;20198;-57
2023/06/27 01:35:57;;;;;;;14.60;3.27;;;16.20;99.90;;;;;;5093509;28;20588;-57
2023/06/27 01:38:31;;;;;;;9.93;2.87;;;16.20;99.90;;;;;;5088987;28;20221;-57
2023/06/27 01:41:03;;;;;;;13.70;3.13;;;16.20;99.90;;;;;;5091742;28;20233;-56
2023/06/27 01:43:31;;;;;;;14.80;3.10;;;16.20;99.90;;;;;;5085958;28;20288;-57
2023/06/27 01:46:00;;;;;;;6.10;2.87;;;16.20;99.90;;;;;;5093729;28;20226;-56
2023/06/27 01:48:29;;;;;;;13.10;3.00;;;16.20;99.90;;;;;;5093190;28;20187;-56
2023/06/27 01:50:57;;;;;;;14.00;3.03;;;16.10;99.90;;;;;;5090045;28;20217;-58
2023/06/27 01:53:25;;;;;;;9.53;2.80;;;16.10;99.90;;;;;;5091049;28;20222;-56
2023/06/27 01:55:54;;;;;;;14.30;3.33;;;16.10;99.90;;;;;;5091710;28;20226;-57
2023/06/27 01:58:23;;;;;;;8.37;2.73;;;16.00;99.90;;;;;;5072268;28;20261;-56
2023/06/27 02:00:52;;;;;;;14.93;3.77;;;16.00;99.90;;;;;;5092824;28;20221;-58
2023/06/27 02:03:20;;;;;;;7.57;2.93;;;16.00;99.90;;;;;;5091477;28;20298;-57
2023/06/27 02:05:48;;;;;;;15.90;3.37;;;16.00;99.90;;;;;;5092180;28;20189;-57
2023/06/27 02:08:17;;;;;;;10.30;3.40;;;16.00;99.90;;;;;;5092842;28;20628;-56
2023/06/27 02:10:45;;;;;;;7.23;2.80;;;16.00;99.90;;;;;;5091318;28;20221;-56
2023/06/27 02:13:15;;;;;;;11.77;3.37;;;16.00;99.90;;;;;;5080272;28;20249;-56
2023/06/27 02:15:45;;;;;;;9.03;2.97;;;15.90;99.90;;;;;;5092762;28;20306;-56
2023/06/27 02:18:13;;;;;;;11.60;3.43;;;15.90;99.90;;;;;;5089569;28;20189;-56
2023/06/27 02:20:42;;;;;;;12.53;3.70;;;15.90;99.90;;;;;;5086647;28;20205;-56
2023/06/27 02:23:10;;;;;;;12.63;3.13;;;15.90;99.90;;;;;;5081544;28;20219;-56
2023/06/27 02:25:38;;;;;;;8.67;3.00;;;15.90;99.90;;;;;;5066644;28;20569;-56
2023/06/27 02:28:07;;;;;;;8.03;3.23;;;15.90;99.90;;;;;;5090531;28;20296;-56
2023/06/27 02:30:35;;;;;;;8.80;2.93;;;15.90;99.90;;;;;;5091623;28;20225;-57
2023/06/27 02:33:05;;;;;;;14.77;3.60;;;15.90;99.90;;;;;;5082842;28;20196;-57
2023/06/27 02:35:33;;;;;;;11.13;3.30;;;15.90;99.90;;;;;;5086184;28;20220;-57
2023/06/27 02:38:01;;;;;;;9.77;3.20;;;15.90;99.90;;;;;;5091935;28;20305;-56
2023/06/27 02:40:30;;;;;;;14.73;3.03;;;15.90;99.90;;;;;;5086599;28;20233;-56
2023/06/27 02:42:58;;;;;;;8.53;3.27;;;15.80;99.90;;;;;;5092019;28;20240;-56
2023/06/27 02:45:26;;;;;;;11.77;3.47;;;15.80;99.90;;;;;;5092369;28;20209;-57
2023/06/27 02:47:54;;;;;;;18.70;4.00;;;15.90;99.90;;;;;;5090353;28;20194;-56
2023/06/27 02:50:24;;;;;;;7.27;3.10;;;15.90;99.90;;;;;;5084432;28;20296;-56
2023/06/27 02:52:52;;;;;;;9.30;3.20;;;15.90;99.90;;;;;;5090588;28;20213;-56
2023/06/27 02:55:21;;;;;;;11.40;3.30;;;15.80;99.90;;;;;;5089208;28;20219;-56
2023/06/27 02:57:49;;;;;;;7.10;2.80;;;15.90;99.90;;;;;;5092861;28;20217;-56
2023/06/27 03:00:18;;;;;;;12.93;3.47;;;15.90;99.90;;;;;;5092776;28;20196;-56
2023/06/27 03:02:46;;;;;;;9.93;3.63;;;15.90;99.90;;;;;;5092875;28;20213;-57
2023/06/27 03:05:15;;;;;;;13.37;3.43;;;15.80;99.90;;;;;;5091177;28;20220;-57
2023/06/27 03:07:44;;;;;;;11.77;3.17;;;15.80;99.90;;;;;;5087797;28;20252;-56
2023/06/27 03:10:13;;;;;;;16.97;3.73;;;15.80;99.90;;;;;;5090467;28;20222;-56
2023/06/27 03:12:41;;;;;;;14.93;3.57;;;15.80;99.90;;;;;;5091493;28;20756;-56
2023/06/27 03:15:10;;;;;;;9.03;3.43;;;15.80;99.90;;;;;;5092279;28;20189;-56
2023/06/27 03:17:38;;;;;;;12.17;3.07;;;15.80;99.90;;;;;;5091163;28;20220;-56
2023/06/27 03:20:11;;;;;;;16.30;3.37;;;15.80;99.90;;;;;;5088308;28;20310;-57
2023/06/27 03:22:39;;;;;;;15.10;3.23;;;15.80;99.90;;;;;;5064205;28;20240;-57
2023/06/27 03:25:10;;;;;;;6.70;3.33;;;15.80;99.90;;;;;;5088865;28;20599;-56
2023/06/27 03:27:39;;;;;;;10.57;3.53;;;15.80;99.90;;;;;;5089520;28;20245;-57
2023/06/27 03:30:08;;;;;;;14.67;3.67;;;15.70;99.90;;;;;;5091235;28;21008;-57
2023/06/27 03:32:36;;;;;;;11.70;3.17;;;15.70;99.90;;;;;;5088952;28;20220;-57
2023/06/27 03:35:05;;;;;;;16.77;3.97;;;15.60;99.90;;;;;;5090499;28;20318;-57
2023/06/27 03:37:35;;;;;;;12.13;3.57;;;15.60;99.90;;;;;;5089729;28;20213;-56
2023/06/27 03:40:05;;;;;;;11.90;3.57;;;15.50;99.90;;;;;;5087623;28;20231;-56
2023/06/27 03:42:34;;;;;;;11.93;3.50;;;15.50;99.90;;;;;;5090345;28;20236;-57
2023/06/27 03:45:03;;;;;;;10.67;3.83;;;15.50;99.90;;;;;;5089289;28;20693;-57
2023/06/27 03:47:31;;;;;;;13.47;3.73;;;15.50;99.90;;;;;;5091031;28;20224;-57
2023/06/27 03:50:00;;;;;;;13.83;4.10;;;15.50;99.90;;;;;;5090490;28;20314;-57
2023/06/27 03:52:28;;;;;;;13.33;4.10;;;15.40;99.90;;;;;;5091528;28;20220;-56
2023/06/27 03:54:56;;;;;;;15.57;4.33;;;15.40;99.90;;;;;;5091023;28;20223;-57
2023/06/27 03:57:24;;;;;;;9.83;3.50;;;15.40;99.90;;;;;;5069560;28;20224;-57
2023/06/27 03:59:54;;;;;;;15.63;3.97;;;15.40;99.90;;;;;;5087639;28;20196;-57
2023/06/27 04:02:22;;;;;;;12.63;3.73;;;15.40;99.90;;;;;;5086734;28;20244;-56
2023/06/27 04:04:51;;;;;;;17.53;4.40;;;15.40;99.90;;;;;;5089458;28;20678;-57
2023/06/27 04:07:19;;;;;;;14.70;4.37;;;15.40;99.90;;;;;;5090992;28;20220;-56
2023/06/27 04:09:47;;;;;;;12.57;4.13;;;15.40;99.90;;;;;;5089414;28;20218;-57
2023/06/27 04:12:16;;;;;;;12.63;3.63;;;15.30;99.90;;;;;;5086970;28;20190;-56
2023/06/27 04:14:45;;;;;;;17.70;4.57;;;15.30;99.90;;;;;;5091978;28;20198;-57
2023/06/27 04:17:14;;;;;;;13.43;3.90;;;15.30;99.90;;;;;;5087771;28;20218;-56
2023/06/27 04:19:43;;;;;;;12.40;3.90;;;15.30;99.90;;;;;;5088398;28;20252;-56
2023/06/27 04:22:11;;;;;;;17.47;4.67;;;15.30;99.90;;;;;;5090060;28;20228;-57
2023/06/27 04:24:39;;;;;;;14.80;5.13;;;15.30;99.90;;;;;;5086458;28;20234;-56
2023/06/27 04:27:09;;;;;;;16.47;4.77;;;15.30;99.90;;;;;;5090043;28;20662;-56
2023/06/27 04:29:37;;;;;;;13.07;4.50;;;15.30;99.90;;;;;;5095483;28;20224;-56
2023/06/27 04:32:07;;;;;;;18.20;4.70;;;15.40;99.90;;;;;;5090956;28;20236;-56
2023/06/27 04:34:37;;;;;;;12.40;4.07;;;15.40;99.90;;;;;;5094586;28;20578;-57
2023/06/27 04:37:05;;;;;;;13.87;4.57;;;15.40;99.90;;;;;;5086742;28;20220;-56
2023/06/27 04:39:33;;;;;;;19.00;4.93;;;15.50;99.90;;;;;;5094561;28;20236;-57
2023/06/27 04:42:03;;;;;;;19.07;5.13;;;15.50;99.90;;;;;;5094708;28;20198;-57
2023/06/27 04:44:32;;;;;;;15.43;5.17;;;15.50;99.90;;;;;;5094864;28;20802;-57
2023/06/27 04:47:00;;;;;;;18.23;5.30;;;15.50;99.90;;;;;;5094079;28;20224;-57
2023/06/27 04:49:28;;;;;;;11.53;4.60;;;15.50;99.30;;;;;;5095378;28;20224;-56
2023/06/27 04:51:58;;;;;;;15.50;4.73;;;15.50;99.90;;;;;;5091242;28;20231;-56
2023/06/27 04:54:29;;;;;;;14.40;5.27;;;15.60;99.90;;;;;;5088249;28;20721;-57
2023/06/27 04:56:59;;;;;;;16.10;4.60;;;15.60;99.90;;;;;;5094480;28;20612;-56
2023/06/27 04:59:40;;;;;;;15.93;5.20;;;15.60;99.90;;;;;;5094039;28;20223;-57
2023/06/27 05:02:08;;;;;;;13.37;5.07;;;15.70;99.90;;;;;;5093688;28;20217;-56
2023/06/27 05:04:37;;;;;;;21.90;5.40;;;15.80;99.90;;;;;;5076843;28;20219;-56
2023/06/27 05:07:07;;;;;;;14.47;5.70;;;15.80;99.90;;;;;;5094470;28;20211;-57
2023/06/27 05:09:35;;;;;;;17.17;5.47;;;15.90;99.90;;;;;;5092658;28;20229;-57
2023/06/27 05:12:04;;;;;;;11.10;5.20;;;15.90;99.90;;;;;;5093855;28;20193;-57
2023/06/27 05:14:32;;;;;;;15.50;5.20;;;16.00;99.90;;;;;;5091691;28;20219;-56
2023/06/27 05:17:01;;;;;;;14.27;4.97;;;16.10;99.90;;;;;;5092612;28;20211;-57
2023/06/27 05:19:29;;;;;;;15.17;5.10;;;16.10;99.90;;;;;;5093234;28;20219;-56
2023/06/27 05:21:57;;;;;;;22.13;5.70;;;16.20;99.90;;;;;;5093806;28;20222;-57
2023/06/27 05:24:27;;;;;;;16.27;4.97;;;16.20;99.90;;;;;;5087961;28;20186;-56
2023/06/27 05:26:55;;;;;;;15.73;5.33;;;16.30;99.90;;;;;;5093465;28;20221;-57
2023/06/27 05:29:24;;;;;;;13.23;5.50;;;16.40;99.90;;;;;;5089336;28;20234;-56
2023/06/27 05:31:54;;;;;;;18.50;5.10;;;16.50;99.90;;;;;;5073452;28;20230;-57
2023/06/27 05:34:23;;;;;;;16.17;5.27;;;16.60;99.90;;;;;;5091494;28;20226;-56
2023/06/27 05:36:52;;;;;;;18.33;5.40;;;16.70;99.90;;;;;;5092740;28;20230;-57
2023/06/27 05:39:20;;;;;;;16.57;4.93;;;16.80;99.90;;;;;;5090863;28;20217;-56
2023/06/27 05:41:49;;;;;;;12.30;4.63;;;16.70;99.90;;;;;;5075323;28;20210;-57
2023/06/27 05:44:18;;;;;;;11.93;4.87;;;16.80;99.90;;;;;;5091305;28;20222;-57
2023/06/27 05:46:48;;;;;;;13.23;4.40;;;16.90;99.90;;;;;;5068912;28;20226;-57
2023/06/27 05:49:17;;;;;;;14.67;5.20;;;17.00;99.90;;;;;;5091572;28;20546;-56
2023/06/27 05:51:46;;;;;;;11.73;4.80;;;17.10;99.90;;;;;;5090984;28;20312;-56
2023/06/27 05:54:14;;;;;;;21.20;5.37;;;17.10;99.90;;;;;;5088469;28;20223;-57
2023/06/27 05:56:42;;;;;;;20.73;4.83;;;17.10;99.90;;;;;;5091307;28;20193;-57
2023/06/27 05:59:12;;;;;;;14.53;4.60;;;17.20;99.90;;;;;;5085242;28;20597;-56
2023/06/27 06:01:40;;;;;;;19.63;5.43;;;17.40;99.90;;;;;;5086416;28;20214;-57
2023/06/27 06:04:10;;;;;;;14.53;4.23;;;17.50;99.90;;;;;;5085722;28;20230;-57
2023/06/27 06:06:38;;;;;;;9.93;4.37;;;17.60;99.90;;;;;;5073949;28;20310;-57
2023/06/27 06:09:07;;;;;;;10.13;4.10;;;17.70;99.90;;;;;;5089683;28;20192;-57
2023/06/27 06:11:36;;;;;;;15.33;4.93;;;17.70;99.90;;;;;;5089574;28;20244;-57
2023/06/27 06:14:05;;;;;;;15.77;4.87;;;17.70;99.90;;;;;;5086677;28;20219;-57
2023/06/27 06:16:35;;;;;;;14.67;4.50;;;17.70;99.90;;;;;;5089587;28;20668;-56
2023/06/27 06:19:04;;;;;;;8.60;4.07;;;17.80;99.90;;;;;;5086504;28;20230;-57
2023/06/27 06:21:33;;;;;;;11.90;4.23;;;17.90;99.90;;;;;;5084464;28;20228;-58
2023/06/27 06:24:02;;;;;;;14.73;5.07;;;18.00;99.90;;;;;;5085254;28;20545;-57
2023/06/27 06:26:30;;;;;;;17.10;4.73;;;18.10;99.90;;;;;;5092760;28;20229;-57
2023/06/27 06:28:58;;;;;;;18.87;4.60;;;18.10;99.90;;;;;;5086834;28;20234;-57
2023/06/27 06:31:26;;;;;;;11.17;4.70;;;18.10;99.90;;;;;;5092983;28;20234;-58
2023/06/27 06:33:57;;;;;;;16.97;4.43;;;18.20;99.90;;;;;;5086061;28;20288;-58
2023/06/27 06:36:25;;;;;;;17.30;4.30;;;18.20;99.90;;;;;;5090560;28;20195;-57
2023/06/27 06:38:53;;;;;;;10.93;3.87;;;18.20;99.90;;;;;;5090505;28;20191;-56
2023/06/27 06:41:22;;;;;;;13.80;4.17;;;18.20;99.90;;;;;;5089264;28;20694;-57
2023/06/27 06:43:50;;;;;;;12.63;4.43;;;18.30;99.90;;;;;;5092079;28;20229;-57
2023/06/27 06:46:19;;;;;;;14.23;4.13;;;18.40;99.90;;;;;;5090439;28;20227;-57
2023/06/27 06:48:47;;;;;;;7.43;4.03;;;18.50;99.90;;;;;;5062711;28;20219;-57
2023/06/27 06:51:17;;;;;;;12.20;4.87;;;18.60;99.90;;;;;;5088830;28;20187;-57
2023/06/27 06:53:45;;;;;;;15.30;4.37;;;18.70;99.90;;;;;;5084393;28;20343;-57
2023/06/27 06:56:13;;;;;;;11.00;4.13;;;18.80;99.90;;;;;;5069388;28;20220;-56
2023/06/27 06:58:42;;;;;;;12.50;4.27;;;18.80;99.90;;;;;;5083569;28;20222;-57
2023/06/27 07:01:10;;;;;;;16.33;4.27;;;18.90;99.90;;;;;;5090784;28;20223;-57
2023/06/27 07:03:38;;;;;;;8.80;3.77;;;18.90;99.90;;;;;;5086678;28;20238;-56
2023/06/27 07:06:09;;;;;;;15.67;3.90;;;19.00;99.90;;;;;;5091729;28;20680;-57
2023/06/27 07:08:38;;;;;;;7.20;3.60;;;19.10;99.90;;;;;;5090864;28;20219;-56
2023/06/27 07:11:07;;;;;;;10.47;3.70;;;19.20;99.90;;;;;;5088885;28;20218;-57
2023/06/27 07:13:35;;;;;;;13.90;3.87;;;19.20;99.90;;;;;;5091266;28;20735;-56
2023/06/27 07:16:03;;;;;;;8.10;3.60;;;19.30;99.90;;;;;;5091652;28;20211;-57
2023/06/27 07:18:32;;;;;;;9.13;3.50;;;19.40;99.90;;;;;;5091819;28;20195;-57
2023/06/27 07:21:00;;;;;;;10.83;3.10;;;19.40;99.90;;;;;;5091332;28;20679;-58
2023/06/27 07:23:28;;;;;;;15.40;3.80;;;19.50;99.90;;;;;;5090404;28;20865;-56
2023/06/27 07:25:58;;;;;;;10.43;3.57;;;19.60;99.90;;;;;;5086807;28;20222;-56
2023/06/27 07:28:26;;;;;;;6.27;3.27;;;19.60;99.90;;;;;;5086791;28;20223;-57
2023/06/27 07:30:56;;;;;;;11.10;3.53;;;19.70;99.90;;;;;;5066765;28;20251;-56
2023/06/27 07:33:25;;;;;;;8.73;3.13;;;19.70;99.90;;;;;;5088310;28;20689;-56
2023/06/27 07:35:53;;;;;;;10.07;3.77;;;19.80;99.90;;;;;;5070037;28;20194;-56
2023/06/27 07:38:22;;;;;;;10.07;3.77;;;19.90;99.90;;;;;;5088612;28;20211;-57
2023/06/27 07:40:50;;;;;;;8.97;3.53;;;20.10;99.90;;;;;;5086442;28;20214;-55
2023/06/27 07:43:22;;;;;;;12.33;3.47;;;20.10;99.90;;;;;;5086574;28;20304;-57
2023/06/27 07:45:50;;;;;;;9.83;3.70;;;20.20;99.90;;;;;;5086564;28;20223;-56
2023/06/27 07:48:19;;;;;;;11.27;3.47;;;20.30;99.90;;;;;;5086314;28;20215;-56
2023/06/27 07:50:47;;;;;;;6.20;3.20;;;20.40;99.90;;;;;;5084898;28;20198;-56
2023/06/27 07:53:16;;;;;;;8.83;3.37;;;20.30;99.90;;;;;;5085003;28;20229;-57
2023/06/27 07:55:44;;;;;;;6.60;3.07;;;20.40;99.90;;;;;;5083636;28;20562;-57
2023/06/27 07:58:13;;;;;;;10.10;3.27;;;20.40;99.90;;;;;;5084201;28;20218;-56
2023/06/27 08:00:45;;;;;;;6.63;3.03;;;20.50;99.90;;;;;;5094710;28;20221;-57
2023/06/27 08:03:13;;;;;;;6.27;2.80;;;20.50;99.90;;;;;;5075004;28;20210;-57
2023/06/27 08:05:42;;;;;;;4.97;2.60;;;20.60;99.90;;;;;;5073967;28;20222;-56
2023/06/27 08:08:11;;;;;;;6.47;2.53;;;20.70;99.90;;;;;;5093703;28;20251;-56
2023/06/27 08:10:41;;;;;;;9.07;2.97;;;20.90;99.90;;;;;;5094622;28;20223;-57
2023/06/27 08:13:09;;;;;;;5.07;2.40;;;21.00;99.90;;;;;;5092807;28;20234;-57
2023/06/27 08:15:38;;;;;;;7.10;2.60;;;21.00;99.90;;;;;;5087133;28;20264;-57
2023/06/27 08:18:08;;;;;;;3.80;2.40;;;21.10;99.90;;;;;;5093324;28;20216;-56
2023/06/27 08:20:36;;;;;;;7.40;3.30;;;21.10;99.90;;;;;;5094121;28;20217;-57
2023/06/27 08:23:05;;;;;;;7.00;2.73;;;21.20;99.90;;;;;;5092636;28;20245;-56
2023/06/27 08:25:34;;;;;;;4.60;2.10;;;21.30;99.90;;;;;;5090665;28;20211;-56
2023/06/27 08:28:02;;;;;;;5.50;1.90;;;21.50;99.90;;;;;;5091263;28;20697;-57
2023/06/27 08:30:31;;;;;;;3.40;2.30;;;21.50;99.90;;;;;;5088952;28;20191;-57
2023/06/27 08:32:59;;;;;;;5.27;2.30;;;21.80;99.90;;;;;;5076683;28;20321;-57
2023/06/27 08:35:29;;;;;;;6.17;2.10;;;21.70;99.90;;;;;;5092733;28;20223;-56
2023/06/27 08:37:57;;;;;;;5.57;2.27;;;21.70;99.90;;;;;;5094284;28;20257;-57
2023/06/27 08:40:27;;;;;;;4.87;2.23;;;21.90;99.90;;;;;;5094000;28;20315;-56
2023/06/27 08:42:55;;;;;;;1.83;1.60;;;21.90;99.90;;;;;;5091974;28;20223;-57
2023/06/27 08:45:24;;;;;;;3.37;1.90;;;22.00;99.90;;;;;;5089374;28;20199;-56
2023/06/27 08:47:52;;;;;;;3.97;2.20;;;22.10;99.90;;;;;;5088385;28;20550;-57
2023/06/27 08:50:22;;;;;;;2.97;2.00;;;22.20;99.90;;;;;;5094857;28;20314;-56
2023/06/27 08:52:56;;;;;;;4.17;1.90;;;22.20;99.90;;;;;;5094281;28;20570;-57
2023/06/27 08:55:34;;;;;;;2.70;2.10;;;22.40;99.90;;;;;;5091818;28;20231;-57
2023/06/27 08:58:06;;;;;;;5.53;2.00;;;22.50;99.90;;;;;;5091678;28;20716;-57
2023/06/27 09:00:35;;;;;;;4.57;2.10;;;22.70;99.90;;;;;;5083922;28;20307;-57
2023/06/27 09:03:05;;;;;;;11.67;2.40;;;22.90;99.90;;;;;;5093379;28;20200;-57
2023/06/27 09:05:34;;;;;;;3.27;1.80;;;22.70;99.90;;;;;;5091703;28;20222;-57
2023/06/27 09:08:04;;;;;;;3.27;1.70;;;22.50;99.90;;;;;;5094489;28;20311;-56
2023/06/27 09:10:33;;;;;;;3.10;1.60;;;22.40;99.90;;;;;;5092962;28;20229;-57
2023/06/27 09:13:03;;;;;;;3.60;2.07;;;22.40;99.90;;;;;;5092398;28;20216;-57
2023/06/27 09:15:31;;;;;;;1.73;1.50;;;22.50;99.90;;;;;;5092886;28;20192;-57
2023/06/27 09:17:59;;;;;;;4.20;1.73;;;22.70;99.90;;;;;;5092101;28;20558;-56
2023/06/27 09:20:28;;;;;;;4.03;1.97;;;22.90;99.90;;;;;;5091595;28;20214;-57
2023/06/27 09:22:57;;;;;;;5.93;1.63;;;23.00;99.90;;;;;;5086816;28;20212;-57
2023/06/27 09:25:27;;;;;;;1.37;1.33;;;23.20;99.90;;;;;;5089335;28;20218;-57
2023/06/27 09:27:55;;;;;;;2.83;1.57;;;23.20;99.90;;;;;;5092255;28;20229;-57
2023/06/27 09:30:31;;;;;;;2.03;1.33;;;23.30;99.90;;;;;;5090420;28;20203;-57
2023/06/27 09:33:01;;;;;;;1.73;1.33;;;23.40;99.90;;;;;;5090375;28;20191;-56
2023/06/27 09:35:31;;;;;;;1.40;1.30;;;23.40;99.90;;;;;;5091755;28;20263;-56
2023/06/27 09:38:06;;;;;;;2.70;1.20;;;23.50;99.90;;;;;;5093813;28;20215;-57
2023/06/27 09:40:39;;;;;;;3.00;1.60;;;23.70;99.90;;;;;;5092697;28;20221;-57
2023/06/27 09:43:08;;;;;;;2.73;1.23;;;23.60;99.90;;;;;;5091359;28;20242;-57
2023/06/27 09:45:37;;;;;;;2.23;1.40;;;23.50;99.90;;;;;;5089320;28;20221;-57
2023/06/27 09:48:10;;;;;;;3.30;1.90;;;23.50;99.90;;;;;;5070136;28;20214;-57
2023/06/27 09:50:40;;;;;;;4.03;1.43;;;23.30;99.90;;;;;;5087037;28;20611;-57
2023/06/27 09:53:09;;;;;;;2.37;1.50;;;23.30;99.90;;;;;;5082798;28;20230;-57
2023/06/27 09:55:45;;;;;;;2.03;1.40;;;23.40;99.90;;;;;;5082294;28;20224;-57
2023/06/27 09:58:14;;;;;;;1.30;1.30;;;23.40;99.90;;;;;;5089661;28;20209;-57
2023/06/27 10:00:42;;;;;;;1.47;1.30;;;23.50;99.90;;;;;;5081533;28;20224;-57
2023/06/27 10:03:11;;;;;;;1.30;1.20;;;23.70;99.90;;;;;;5087704;28;20189;-57
2023/06/27 10:05:40;;;;;;;4.73;1.47;;;23.80;99.90;;;;;;5088926;28;20232;-57
2023/06/27 10:08:26;;;;;;;2.13;1.40;;;23.90;99.90;;;;;;5082606;28;20228;-57
2023/06/27 10:10:57;;;;;;;3.23;1.50;;;24.00;99.90;;;;;;5088952;28;20209;-58
2023/06/27 10:13:26;;;;;;;1.43;1.37;;;24.00;99.90;;;;;;5084584;28;20234;-57
2023/06/27 10:15:55;;;;;;;2.50;1.43;;;23.90;99.90;;;;;;5070486;28;20234;-58
2023/06/27 10:18:23;;;;;;;2.90;1.77;;;23.90;99.90;;;;;;5092688;28;20320;-57
2023/06/27 10:20:54;;;;;;;3.13;1.73;;;23.80;99.90;;;;;;5091946;28;20232;-57
2023/06/27 10:23:23;;;;;;;2.70;1.67;;;23.90;99.90;;;;;;5093254;28;20219;-57
2023/06/27 10:25:53;;;;;;;1.90;1.60;;;24.00;99.90;;;;;;5091849;28;20229;-57
2023/06/27 10:28:23;;;;;;;3.67;1.70;;;24.20;99.90;;;;;;5087123;28;20253;-57
2023/06/27 10:30:51;;;;;;;2.40;1.30;;;24.10;99.90;;;;;;5087682;28;20296;-57
2023/06/27 10:33:27;;;;;;;3.47;1.63;;;23.90;99.90;;;;;;5085992;28;20189;-57
2023/06/27 10:36:01;;;;;;;1.97;1.60;;;23.90;99.90;;;;;;5088689;28;20221;-56
2023/06/27 10:38:35;;;;;;;2.33;1.77;;;23.70;99.90;;;;;;5080824;28;20215;-57
2023/06/27 10:41:11;;;;;;;2.73;1.60;;;23.50;99.90;;;;;;5087895;28;20227;-57
2023/06/27 10:43:49;;;;;;;1.53;1.40;;;23.50;99.90;;;;;;5086832;28;20550;-57
2023/06/27 10:46:19;;;;;;;5.10;1.87;;;23.50;99.90;;;;;;5082857;28;20219;-57
2023/06/27 10:48:50;;;;;;;3.37;2.10;;;23.50;99.90;;;;;;5087218;28;20229;-57
2023/06/27 10:51:20;;;;;;;4.70;1.60;;;23.50;99.90;;;;;;5077066;28;20197;-57
2023/06/27 10:54:14;;;;;;;4.13;1.90;;;23.40;99.90;;;;;;5087261;28;20221;-57
2023/06/27 10:56:44;;;;;;;4.63;2.07;;;23.30;99.90;;;;;;5084872;28;20244;-56
2023/06/27 10:59:17;;;;;;;4.17;2.10;;;23.20;99.90;;;;;;5084646;28;20216;-57
2023/06/27 11:01:53;;;;;;;7.53;2.10;;;23.10;99.90;;;;;;5088120;28;20248;-57
2023/06/27 11:04:25;;;;;;;3.73;1.80;;;23.10;99.90;;;;;;5072963;28;20220;-57
2023/06/27 11:07:00;;;;;;;1.77;1.50;;;23.10;99.90;;;;;;5087825;28;20544;-57
2023/06/27 11:09:30;;;;;;;4.10;1.83;;;23.20;99.90;;;;;;5091290;28;20217;-56
2023/06/27 11:12:11;;;;;;;1.77;1.60;;;23.40;99.90;;;;;;5086657;28;20236;-57
2023/06/27 11:14:42;;;;;;;2.40;1.80;;;23.50;99.90;;;;;;5085096;28;20207;-56
2023/06/27 11:17:11;;;;;;;6.10;2.13;;;23.30;99.90;;;;;;5091009;28;20217;-58
2023/06/27 11:19:42;;;;;;;2.90;1.80;;;23.30;99.90;;;;;;5090157;28;20244;-56
2023/06/27 11:22:11;;;;;;;5.07;2.07;;;23.10;99.90;;;;;;5084675;28;20217;-57
2023/06/27 11:24:41;;;;;;;4.50;1.80;;;23.00;99.90;;;;;;5089556;28;20221;-57
2023/06/27 11:27:09;;;;;;;4.87;1.87;;;22.90;99.90;;;;;;5090374;28;20198;-57
2023/06/27 11:29:37;;;;;;;3.43;1.83;;;22.90;99.90;;;;;;5091107;28;20224;-57
2023/06/27 11:32:08;;;;;;;4.90;2.00;;;22.80;99.90;;;;;;5090023;28;20220;-57
2023/06/27 11:34:37;;;;;;;2.57;1.57;;;22.80;99.90;;;;;;5083887;28;21013;-57
2023/06/27 11:37:05;;;;;;;5.60;1.80;;;22.80;99.90;;;;;;5081924;28;20423;-57
2023/06/27 11:39:35;;;;;;;2.23;1.90;;;22.90;99.90;;;;;;5090982;28;20581;-57
2023/06/27 11:42:04;;;;;;;5.40;1.73;;;23.00;99.90;;;;;;5083420;28;20191;-57
2023/06/27 11:44:34;;;;;;;2.70;1.60;;;23.00;99.90;;;;;;5084716;28;20225;-58
2023/06/27 11:47:07;;;;;;;4.93;2.10;;;23.10;99.90;;;;;;5087839;28;20228;-58
2023/06/27 11:49:35;;;;;;;4.27;2.10;;;23.10;99.90;;;;;;5072730;28;20229;-57
2023/06/27 11:52:04;;;;;;;3.63;1.80;;;23.20;99.90;;;;;;5090975;28;20233;-57
2023/06/27 11:54:34;;;;;;;5.93;1.70;;;23.20;99.90;;;;;;5083775;28;20236;-58
2023/06/27 11:57:02;;;;;;;4.57;1.70;;;23.30;99.90;;;;;;5088485;28;20201;-58
2023/06/27 11:59:31;;;;;;;7.23;2.10;;;23.40;99.90;;;;;;5086867;28;20268;-57
2023/06/27 12:02:00;;;;;;;4.43;1.90;;;23.60;99.90;;;;;;5088603;28;20228;-57
2023/06/27 12:04:30;;;;;;;4.00;1.80;;;23.70;99.90;;;;;;5085849;28;20291;-57
2023/06/27 12:07:16;;;;;;;2.33;1.80;;;24.00;99.90;;;;;;5086797;28;20309;-57
2023/06/27 12:09:45;;;;;;;2.80;1.90;;;24.40;99.90;;;;;;5088784;28;20231;-58
2023/06/27 12:12:13;;;;;;;4.73;1.60;;;24.70;99.90;;;;;;5090809;28;20923;-57
2023/06/27 12:14:45;;;;;;;2.23;1.90;;;25.00;99.90;;;;;;5090335;28;20206;-57
2023/06/27 12:17:23;;;;;;;3.27;1.87;;;25.20;99.90;;;;;;5089400;28;20216;-57
2023/06/27 12:19:53;;;;;;;1.80;1.70;;;25.50;99.90;;;;;;5089500;28;20222;-57
2023/06/27 12:22:21;;;;;;;3.07;1.60;;;25.30;99.90;;;;;;5089093;28;20211;-57
2023/06/27 12:24:51;;;;;;;5.17;1.90;;;25.40;99.90;;;;;;5090672;28;20262;-57
2023/06/27 12:27:19;;;;;;;3.77;1.90;;;25.70;99.90;;;;;;5090643;28;20218;-57
2023/06/27 12:30:10;;;;;;;3.97;1.87;;;25.70;99.90;;;;;;5089574;28;20213;-58
2023/06/27 12:32:40;;;;;;;3.23;2.07;;;25.40;99.90;;;;;;5084469;28;20310;-57
2023/06/27 12:35:10;;;;;;;4.27;1.60;;;25.20;99.90;;;;;;5090472;28;20247;-57
2023/06/27 12:37:38;;;;;;;4.07;1.93;;;25.10;99.90;;;;;;5071540;28;20227;-57
2023/06/27 12:40:08;;;;;;;2.53;1.93;;;25.00;99.90;;;;;;5088177;28;20211;-57
2023/06/27 12:42:37;;;;;;;3.33;1.70;;;25.00;99.90;;;;;;5090368;28;20234;-58
2023/06/27 12:45:06;;;;;;;4.10;1.83;;;25.20;99.90;;;;;;5088687;28;20198;-58
2023/06/27 12:47:36;;;;;;;3.33;1.70;;;25.30;99.90;;;;;;5087820;28;20563;-57
2023/06/27 12:50:05;;;;;;;3.93;1.77;;;25.50;99.90;;;;;;5092810;28;20265;-57
2023/06/27 12:52:34;;;;;;;2.77;1.87;;;25.50;99.90;;;;;;5092354;28;20322;-57
2023/06/27 12:55:03;;;;;;;4.10;1.80;;;25.30;99.90;;;;;;5094091;28;20717;-56